createdAt,value
2017-08-19T00:00:23.974Z,95.61
2017-08-19T00:00:50.166Z,96.18
2017-08-19T00:01:16.349Z,95.7
2017-08-19T00:01:42.504Z,95.41
2017-08-19T00:02:08.682Z,95.79
2017-08-19T00:02:34.894Z,95.7
2017-08-19T00:03:01.060Z,95.61
2017-08-19T00:03:27.271Z,95.89
2017-08-19T00:03:53.452Z,96.18
2017-08-19T00:04:19.615Z,95.41
2017-08-19T00:04:45.833Z,95.61
2017-08-19T00:05:12.026Z,95.61
2017-08-19T00:05:38.220Z,95.7
2017-08-19T00:06:04.399Z,95.51
2017-08-19T00:06:30.622Z,96.27
2017-08-19T00:06:56.759Z,96.56
2017-08-19T00:07:22.988Z,96.47
2017-08-19T00:07:49.135Z,96.56
2017-08-19T00:08:15.351Z,95.89
2017-08-19T00:08:41.537Z,95.89
2017-08-19T00:09:07.733Z,96.47
2017-08-19T00:09:33.909Z,96.08
2017-08-19T00:10:00.158Z,96.37
2017-08-19T00:10:26.329Z,96.27
2017-08-19T00:10:52.500Z,96.37
2017-08-19T00:11:18.688Z,95.98
2017-08-19T00:11:44.886Z,96.47
2017-08-19T00:12:10.999Z,96.56
2017-08-19T00:12:37.218Z,96.08
2017-08-19T00:13:03.333Z,96.18
2017-08-19T00:13:29.489Z,96.27
2017-08-19T00:13:55.630Z,97.23
2017-08-19T00:14:21.829Z,96.08
2017-08-19T00:14:48.026Z,96.47
2017-08-19T00:15:14.220Z,96.18
2017-08-19T00:15:40.380Z,96.56
2017-08-19T00:16:06.563Z,96.37
2017-08-19T00:16:32.769Z,96.37
2017-08-19T00:16:58.963Z,96.47
2017-08-19T00:17:25.115Z,96.47
2017-08-19T00:17:51.291Z,96.47
2017-08-19T00:18:17.455Z,95.89
2017-08-19T00:18:43.672Z,96.37
2017-08-19T00:19:09.827Z,96.37
2017-08-19T00:19:35.990Z,96.47
2017-08-19T00:20:02.107Z,96.08
2017-08-19T00:20:28.291Z,96.47
2017-08-19T00:20:54.493Z,96.37
2017-08-19T00:21:20.667Z,96.47
2017-08-19T00:21:46.864Z,96.18
2017-08-19T00:22:12.994Z,96.94
2017-08-19T00:22:39.189Z,96.7
2017-08-19T00:23:05.405Z,96.47
2017-08-19T00:23:31.588Z,96.66
2017-08-19T00:23:57.753Z,96.37
2017-08-19T00:24:23.931Z,96.66
2017-08-19T00:24:50.041Z,96.51
2017-08-19T00:25:16.199Z,96.8
2017-08-19T00:25:42.380Z,96.99
2017-08-19T00:26:08.572Z,97.04
2017-08-19T00:26:34.734Z,96.7
2017-08-19T00:27:00.847Z,96.94
2017-08-19T00:27:27.012Z,96.7
2017-08-19T00:27:53.167Z,97.18
2017-08-19T00:28:19.351Z,96.99
2017-08-19T00:28:45.458Z,96.7
2017-08-19T00:29:11.612Z,97.42
2017-08-19T00:29:37.768Z,97.08
2017-08-19T00:30:03.910Z,96.61
2017-08-19T00:30:30.025Z,97.47
2017-08-19T00:30:56.258Z,97.08
2017-08-19T00:31:22.469Z,97.28
2017-08-19T00:31:48.682Z,97.37
2017-08-19T00:32:14.846Z,96.89
2017-08-19T00:32:41.021Z,97.37
2017-08-19T00:33:07.181Z,96.7
2017-08-19T00:33:33.340Z,96.7
2017-08-19T00:33:59.521Z,96.7
2017-08-19T00:34:25.645Z,96.99
2017-08-19T00:34:51.817Z,97.37
2017-08-19T00:35:18.008Z,97.18
2017-08-19T00:35:44.182Z,96.7
2017-08-19T00:36:10.357Z,96.99
2017-08-19T00:36:36.519Z,97.08
2017-08-19T00:37:02.655Z,96.7
2017-08-19T00:37:28.807Z,96.99
2017-08-19T00:37:54.991Z,96.99
2017-08-19T00:38:21.154Z,97.08
2017-08-19T00:38:47.293Z,97.08
2017-08-19T00:39:13.480Z,96.7
2017-08-19T00:39:39.681Z,96.99
2017-08-19T00:40:05.897Z,96.8
2017-08-19T00:40:32.085Z,97.18
2017-08-19T00:40:58.256Z,96.99
2017-08-19T00:41:24.437Z,97.18
2017-08-19T00:41:50.635Z,97.18
2017-08-19T00:42:16.798Z,96.51
2017-08-19T00:42:42.924Z,96.32
2017-08-19T00:43:09.096Z,96.61
2017-08-19T00:43:35.258Z,96.42
2017-08-19T00:44:01.383Z,96.8
2017-08-19T00:44:27.591Z,96.89
2017-08-19T00:44:53.727Z,96.8
2017-08-19T00:45:19.852Z,97.18
2017-08-19T00:45:45.997Z,97.08
2017-08-19T00:46:12.193Z,96.99
2017-08-19T00:46:38.436Z,97.18
2017-08-19T00:47:04.598Z,96.8
2017-08-19T00:47:30.760Z,96.8
2017-08-19T00:47:56.930Z,96.8
2017-08-19T00:48:23.066Z,96.99
2017-08-19T00:48:49.216Z,96.99
2017-08-19T00:49:15.369Z,96.42
2017-08-19T00:49:41.533Z,96.61
2017-08-19T00:50:07.779Z,96.7
2017-08-19T00:50:33.968Z,96.99
2017-08-19T00:51:00.165Z,96.8
2017-08-19T00:51:26.397Z,96.99
2017-08-19T00:51:52.585Z,97.28
2017-08-19T00:52:18.696Z,96.89
2017-08-19T00:52:44.912Z,96.89
2017-08-19T00:53:11.080Z,96.61
2017-08-19T00:53:37.226Z,96.8
2017-08-19T00:54:03.412Z,96.89
2017-08-19T00:54:29.544Z,96.47
2017-08-19T00:54:55.689Z,96.61
2017-08-19T00:55:21.935Z,96.32
2017-08-19T00:55:48.163Z,96.61
2017-08-19T00:56:14.274Z,96.7
2017-08-19T00:56:40.460Z,96.61
2017-08-19T00:57:06.660Z,96.99
2017-08-19T00:57:32.848Z,96.61
2017-08-19T00:57:59.002Z,97.28
2017-08-19T00:58:25.212Z,96.89
2017-08-19T00:58:51.339Z,97.18
2017-08-19T00:59:17.474Z,97.08
2017-08-19T00:59:43.643Z,97.28
2017-08-19T01:00:09.861Z,96.8
2017-08-19T01:00:36.007Z,97.18
2017-08-19T01:01:02.144Z,97.08
2017-08-19T01:01:28.303Z,96.99
2017-08-19T01:01:54.479Z,97.37
2017-08-19T01:02:20.621Z,96.8
2017-08-19T01:02:46.807Z,96.99
2017-08-19T01:03:12.925Z,96.61
2017-08-19T01:03:39.060Z,97.28
2017-08-19T01:04:05.240Z,97.08
2017-08-19T01:04:31.426Z,97.08
2017-08-19T01:04:57.647Z,96.99
2017-08-19T01:05:23.862Z,97.18
2017-08-19T01:05:49.980Z,97.37
2017-08-19T01:06:16.117Z,96.8
2017-08-19T01:06:42.289Z,97.08
2017-08-19T01:07:08.448Z,96.99
2017-08-19T01:07:34.649Z,97.37
2017-08-19T01:08:00.809Z,97.08
2017-08-19T01:08:26.967Z,97.37
2017-08-19T01:08:53.115Z,98.04
2017-08-19T01:09:19.297Z,97.95
2017-08-19T01:09:45.495Z,97.56
2017-08-19T01:10:11.670Z,97.37
2017-08-19T01:10:37.884Z,96.89
2017-08-19T01:11:03.996Z,97.08
2017-08-19T01:11:30.164Z,97.37
2017-08-19T01:11:56.418Z,97.18
2017-08-19T01:12:22.571Z,97.28
2017-08-19T01:12:48.671Z,96.89
2017-08-19T01:13:14.825Z,97.28
2017-08-19T01:13:41.004Z,96.99
2017-08-19T01:14:07.134Z,96.8
2017-08-19T01:14:33.340Z,96.99
2017-08-19T01:14:59.474Z,97.08
2017-08-19T01:15:25.667Z,96.8
2017-08-19T01:15:51.819Z,97.28
2017-08-19T01:16:17.980Z,96.99
2017-08-19T01:16:44.142Z,97.18
2017-08-19T01:17:10.348Z,96.99
2017-08-19T01:17:36.546Z,96.89
2017-08-19T01:18:02.693Z,96.99
2017-08-19T01:18:28.817Z,97.08
2017-08-19T01:18:55.013Z,97.18
2017-08-19T01:19:21.156Z,96.8
2017-08-19T01:19:47.377Z,97.18
2017-08-19T01:20:13.513Z,97.08
2017-08-19T01:20:39.696Z,97.18
2017-08-19T01:21:05.833Z,96.89
2017-08-19T01:21:32.017Z,96.61
2017-08-19T01:21:58.239Z,96.8
2017-08-19T01:22:24.397Z,96.61
2017-08-19T01:22:50.540Z,96.7
2017-08-19T01:23:16.701Z,96.8
2017-08-19T01:23:42.868Z,96.51
2017-08-19T01:24:09.041Z,96.61
2017-08-19T01:24:35.225Z,96.99
2017-08-19T01:25:01.390Z,97.08
2017-08-19T01:25:27.557Z,96.61
2017-08-19T01:25:53.741Z,96.42
2017-08-19T01:26:19.890Z,96.99
2017-08-19T01:26:46.077Z,96.8
2017-08-19T01:27:12.215Z,96.89
2017-08-19T01:27:38.356Z,96.89
2017-08-19T01:28:04.543Z,96.8
2017-08-19T01:28:30.752Z,96.42
2017-08-19T01:28:56.859Z,96.51
2017-08-19T01:29:22.988Z,96.61
2017-08-19T01:29:49.135Z,96.89
2017-08-19T01:30:15.245Z,96.8
2017-08-19T01:30:41.403Z,96.61
2017-08-19T01:31:07.588Z,96.8
2017-08-19T01:31:33.792Z,96.61
2017-08-19T01:31:59.963Z,96.8
2017-08-19T01:32:26.160Z,97.18
2017-08-19T01:32:52.344Z,96.7
2017-08-19T01:33:18.547Z,96.99
2017-08-19T01:33:44.765Z,97.18
2017-08-19T01:34:10.915Z,97.08
2017-08-19T01:34:37.099Z,96.99
2017-08-19T01:35:03.235Z,97.18
2017-08-19T01:35:29.411Z,97.08
2017-08-19T01:35:55.602Z,97.08
2017-08-19T01:36:21.760Z,97.18
2017-08-19T01:36:47.940Z,97.08
2017-08-19T01:37:14.081Z,96.8
2017-08-19T01:37:40.291Z,96.89
2017-08-19T01:38:06.436Z,96.61
2017-08-19T01:38:32.577Z,96.89
2017-08-19T01:38:58.787Z,96.89
2017-08-19T01:39:24.940Z,97.37
2017-08-19T01:39:51.102Z,96.61
2017-08-19T01:40:17.251Z,96.7
2017-08-19T01:40:43.438Z,97.08
2017-08-19T01:41:09.596Z,97.08
2017-08-19T01:41:35.768Z,96.99
2017-08-19T01:42:01.985Z,96.99
2017-08-19T01:42:28.135Z,97.18
2017-08-19T01:42:54.286Z,97.18
2017-08-19T01:43:20.449Z,97.18
2017-08-19T01:43:46.597Z,97.18
2017-08-19T01:44:12.722Z,96.8
2017-08-19T01:44:38.916Z,96.99
2017-08-19T01:45:05.122Z,97.08
2017-08-19T01:45:31.366Z,97.18
2017-08-19T01:45:57.567Z,96.8
2017-08-19T01:46:23.761Z,97.08
2017-08-19T01:46:49.892Z,97.28
2017-08-19T01:47:16.030Z,96.8
2017-08-19T01:47:42.226Z,97.37
2017-08-19T01:48:08.412Z,96.8
2017-08-19T01:48:34.647Z,96.99
2017-08-19T01:49:00.813Z,96.8
2017-08-19T01:49:27.029Z,96.99
2017-08-19T01:49:53.179Z,97.56
2017-08-19T01:50:19.323Z,97.08
2017-08-19T01:50:45.463Z,96.99
2017-08-19T01:51:11.686Z,97.47
2017-08-19T01:51:37.907Z,97.37
2017-08-19T01:52:04.137Z,96.89
2017-08-19T01:52:30.292Z,97.37
2017-08-19T01:52:56.498Z,98.04
2017-08-19T01:53:22.664Z,97.47
2017-08-19T01:53:48.788Z,97.56
2017-08-19T01:54:14.904Z,97.56
2017-08-19T01:54:41.126Z,97.18
2017-08-19T01:55:07.294Z,97.18
2017-08-19T01:55:33.435Z,97.37
2017-08-19T01:55:59.587Z,97.37
2017-08-19T01:56:25.757Z,97.18
2017-08-19T01:56:51.954Z,97.28
2017-08-19T01:57:18.201Z,97.37
2017-08-19T01:57:44.348Z,97.18
2017-08-19T01:58:10.567Z,96.99
2017-08-19T01:58:36.781Z,97.18
2017-08-19T01:59:02.957Z,97.85
2017-08-19T01:59:29.104Z,97.95
2017-08-19T01:59:55.273Z,97.66
2017-08-19T02:00:21.467Z,97.56
2017-08-19T02:00:47.624Z,97.66
2017-08-19T02:01:13.865Z,97.75
2017-08-19T02:01:40.055Z,97.56
2017-08-19T02:02:06.237Z,97.18
2017-08-19T02:02:32.416Z,96.89
2017-08-19T02:02:58.555Z,97.47
2017-08-19T02:03:24.771Z,97.56
2017-08-19T02:03:50.986Z,97.37
2017-08-19T02:04:17.119Z,96.99
2017-08-19T02:04:43.295Z,97.37
2017-08-19T02:05:09.502Z,97.47
2017-08-19T02:05:35.655Z,97.08
2017-08-19T02:06:01.809Z,97.37
2017-08-19T02:06:28.006Z,97.75
2017-08-19T02:06:54.187Z,98.14
2017-08-19T02:07:20.370Z,97.95
2017-08-19T02:07:46.510Z,97.75
2017-08-19T02:08:12.714Z,97.66
2017-08-19T02:08:38.902Z,97.66
2017-08-19T02:09:05.040Z,97.85
2017-08-19T02:09:31.241Z,97.56
2017-08-19T02:09:57.396Z,97.66
2017-08-19T02:10:23.571Z,97.75
2017-08-19T02:10:49.679Z,97.85
2017-08-19T02:11:15.861Z,97.66
2017-08-19T02:11:42.043Z,97.85
2017-08-19T02:12:08.179Z,97.66
2017-08-19T02:12:34.335Z,97.75
2017-08-19T02:13:00.545Z,97.75
2017-08-19T02:13:26.738Z,97.85
2017-08-19T02:13:52.948Z,97.95
2017-08-19T02:14:19.099Z,97.95
2017-08-19T02:14:45.257Z,97.95
2017-08-19T02:15:11.411Z,97.75
2017-08-19T02:15:37.600Z,97.95
2017-08-19T02:16:03.767Z,97.66
2017-08-19T02:16:29.918Z,97.85
2017-08-19T02:16:56.027Z,97.95
2017-08-19T02:17:22.209Z,98.04
2017-08-19T02:17:48.396Z,97.47
2017-08-19T02:18:14.537Z,97.85
2017-08-19T02:18:40.681Z,97.95
2017-08-19T02:19:06.902Z,97.85
2017-08-19T02:19:33.064Z,97.66
2017-08-19T02:19:59.212Z,97.95
2017-08-19T02:20:25.364Z,97.75
2017-08-19T02:20:51.540Z,97.75
2017-08-19T02:21:17.676Z,98.33
2017-08-19T02:21:43.887Z,97.95
2017-08-19T02:22:10.066Z,98.04
2017-08-19T02:22:36.251Z,97.75
2017-08-19T02:23:02.419Z,97.95
2017-08-19T02:23:28.587Z,97.99
2017-08-19T02:23:54.775Z,97.75
2017-08-19T02:24:20.945Z,97.95
2017-08-19T02:24:47.115Z,97.71
2017-08-19T02:25:13.337Z,97.85
2017-08-19T02:25:39.576Z,97.95
2017-08-19T02:26:05.742Z,97.8
2017-08-19T02:26:31.925Z,98.28
2017-08-19T02:26:58.179Z,97.71
2017-08-19T02:27:24.357Z,98.33
2017-08-19T02:27:50.521Z,98.14
2017-08-19T02:28:16.713Z,98.33
2017-08-19T02:28:42.871Z,98.18
2017-08-19T02:29:09.020Z,97.9
2017-08-19T02:29:35.131Z,97.75
2017-08-19T02:30:01.396Z,97.71
2017-08-19T02:30:27.577Z,97.95
2017-08-19T02:30:53.745Z,97.85
2017-08-19T02:31:19.866Z,98.04
2017-08-19T02:31:46.054Z,97.95
2017-08-19T02:32:12.222Z,97.85
2017-08-19T02:32:38.365Z,97.85
2017-08-19T02:33:04.520Z,98.14
2017-08-19T02:33:30.661Z,97.9
2017-08-19T02:33:56.803Z,97.75
2017-08-19T02:34:22.960Z,97.71
2017-08-19T02:34:49.126Z,97.61
2017-08-19T02:35:15.291Z,97.66
2017-08-19T02:35:41.483Z,97.66
2017-08-19T02:36:07.692Z,97.8
2017-08-19T02:36:33.889Z,97.95
2017-08-19T02:37:00.072Z,97.85
2017-08-19T02:37:26.218Z,97.95
2017-08-19T02:37:52.416Z,98.04
2017-08-19T02:38:18.632Z,96.99
2017-08-19T02:38:44.801Z,97.47
2017-08-19T02:39:10.996Z,96.94
2017-08-19T02:39:37.178Z,97.08
2017-08-19T02:40:03.370Z,97.85
2017-08-19T02:40:29.556Z,97.71
2017-08-19T02:40:55.743Z,97.66
2017-08-19T02:41:21.880Z,98.14
2017-08-19T02:41:48.123Z,97.42
2017-08-19T02:42:14.278Z,97.08
2017-08-19T02:42:40.447Z,97.37
2017-08-19T02:43:06.619Z,97.33
2017-08-19T02:43:32.870Z,97.04
2017-08-19T02:43:59.035Z,97.52
2017-08-19T02:44:25.248Z,96.99
2017-08-19T02:44:51.412Z,97.42
2017-08-19T02:45:17.582Z,96.94
2017-08-19T02:45:43.833Z,97.99
2017-08-19T02:46:10.025Z,97.61
2017-08-19T02:46:36.212Z,97.61
2017-08-19T02:47:02.393Z,97.9
2017-08-19T02:47:28.601Z,97.99
2017-08-19T02:47:54.731Z,97.9
2017-08-19T02:48:20.982Z,97.04
2017-08-19T02:48:47.122Z,97.33
2017-08-19T02:49:13.310Z,97.71
2017-08-19T02:49:39.463Z,97.75
2017-08-19T02:50:05.638Z,97.33
2017-08-19T02:50:31.825Z,97.13
2017-08-19T02:50:58.045Z,97.04
2017-08-19T02:51:24.272Z,97.04
2017-08-19T02:51:50.520Z,97.13
2017-08-19T02:52:16.726Z,97.13
2017-08-19T02:52:42.917Z,97.33
2017-08-19T02:53:09.111Z,96.66
2017-08-19T02:53:35.354Z,96.94
2017-08-19T02:54:01.544Z,97.04
2017-08-19T02:54:27.786Z,96.56
2017-08-19T02:54:53.907Z,96.75
2017-08-19T02:55:20.088Z,96.75
2017-08-19T02:55:46.255Z,96.75
2017-08-19T02:56:12.423Z,96.94
2017-08-19T02:56:38.641Z,96.94
2017-08-19T02:57:04.820Z,96.94
2017-08-19T02:57:30.986Z,97.04
2017-08-19T02:57:57.139Z,96.94
2017-08-19T02:58:23.316Z,97.33
2017-08-19T02:58:49.482Z,96.75
2017-08-19T02:59:15.630Z,96.94
2017-08-19T02:59:41.817Z,97.04
2017-08-19T03:00:08.012Z,96.75
2017-08-19T03:00:34.184Z,97.04
2017-08-19T03:01:00.423Z,96.75
2017-08-19T03:01:26.640Z,97.04
2017-08-19T03:01:52.784Z,97.13
2017-08-19T03:02:18.948Z,97.13
2017-08-19T03:02:45.135Z,97.13
2017-08-19T03:03:11.353Z,97.13
2017-08-19T03:03:37.491Z,97.04
2017-08-19T03:04:03.667Z,97.42
2017-08-19T03:04:29.858Z,97.13
2017-08-19T03:04:55.995Z,97.42
2017-08-19T03:05:22.201Z,97.33
2017-08-19T03:05:48.388Z,97.33
2017-08-19T03:06:14.555Z,97.33
2017-08-19T03:06:40.680Z,97.42
2017-08-19T03:07:06.840Z,97.9
2017-08-19T03:07:33.077Z,97.99
2017-08-19T03:07:59.232Z,97.9
2017-08-19T03:08:25.397Z,97.9
2017-08-19T03:08:51.569Z,97.61
2017-08-19T03:09:17.759Z,97.71
2017-08-19T03:09:43.926Z,97.9
2017-08-19T03:10:10.124Z,97.52
2017-08-19T03:10:36.342Z,97.42
2017-08-19T03:11:02.491Z,97.9
2017-08-19T03:11:28.627Z,97.13
2017-08-19T03:11:54.815Z,96.47
2017-08-19T03:12:21.009Z,96.94
2017-08-19T03:12:47.163Z,96.94
2017-08-19T03:13:13.329Z,96.94
2017-08-19T03:13:39.523Z,97.04
2017-08-19T03:14:05.741Z,97.13
2017-08-19T03:14:31.943Z,97.13
2017-08-19T03:14:58.052Z,96.94
2017-08-19T03:15:24.298Z,96.94
2017-08-19T03:15:50.447Z,97.13
2017-08-19T03:16:16.641Z,97.13
2017-08-19T03:16:42.853Z,96.75
2017-08-19T03:17:09.008Z,97.23
2017-08-19T03:17:35.199Z,97.13
2017-08-19T03:18:01.380Z,96.94
2017-08-19T03:18:27.567Z,96.84
2017-08-19T03:18:53.732Z,96.94
2017-08-19T03:19:19.904Z,96.66
2017-08-19T03:19:46.090Z,96.66
2017-08-19T03:20:12.263Z,96.94
2017-08-19T03:20:38.396Z,96.75
2017-08-19T03:21:04.558Z,97.13
2017-08-19T03:21:30.756Z,96.94
2017-08-19T03:21:56.927Z,97.04
2017-08-19T03:22:23.083Z,97.04
2017-08-19T03:22:49.263Z,96.84
2017-08-19T03:23:15.428Z,96.75
2017-08-19T03:23:41.542Z,96.84
2017-08-19T03:24:07.706Z,97.33
2017-08-19T03:24:33.868Z,97.13
2017-08-19T03:25:00.046Z,96.66
2017-08-19T03:25:26.241Z,96.75
2017-08-19T03:25:52.425Z,96.75
2017-08-19T03:26:18.605Z,97.13
2017-08-19T03:26:44.771Z,97.13
2017-08-19T03:27:10.956Z,96.84
2017-08-19T03:27:37.103Z,97.13
2017-08-19T03:28:03.264Z,97.33
2017-08-19T03:28:29.417Z,97.04
2017-08-19T03:28:55.592Z,97.33
2017-08-19T03:29:21.808Z,97.33
2017-08-19T03:29:47.991Z,96.94
2017-08-19T03:30:14.182Z,97.42
2017-08-19T03:30:40.419Z,97.23
2017-08-19T03:31:06.700Z,97.13
2017-08-19T03:31:32.835Z,96.47
2017-08-19T03:31:58.981Z,96.84
2017-08-19T03:32:25.167Z,96.75
2017-08-19T03:32:51.305Z,96.75
2017-08-19T03:33:17.499Z,97.04
2017-08-19T03:33:43.686Z,96.47
2017-08-19T03:34:09.833Z,97.23
2017-08-19T03:34:36.046Z,97.52
2017-08-19T03:35:02.242Z,97.33
2017-08-19T03:35:28.446Z,97.42
2017-08-19T03:35:54.639Z,97.33
2017-08-19T03:36:20.802Z,97.52
2017-08-19T03:36:46.917Z,97.99
2017-08-19T03:37:13.041Z,97.52
2017-08-19T03:37:39.249Z,98.09
2017-08-19T03:38:05.387Z,97.42
2017-08-19T03:38:31.577Z,97.52
2017-08-19T03:38:57.688Z,97.04
2017-08-19T03:39:23.854Z,97.04
2017-08-19T03:39:50.010Z,96.37
2017-08-19T03:40:16.175Z,97.13
2017-08-19T03:40:42.365Z,97.04
2017-08-19T03:41:08.540Z,96.94
2017-08-19T03:41:34.677Z,96.94
2017-08-19T03:42:00.838Z,97.04
2017-08-19T03:42:27.041Z,98.09
2017-08-19T03:42:53.214Z,97.61
2017-08-19T03:43:19.460Z,97.99
2017-08-19T03:43:45.645Z,97.9
2017-08-19T03:44:11.807Z,98.09
2017-08-19T03:44:38.046Z,96.94
2017-08-19T03:45:04.201Z,97.9
2017-08-19T03:45:30.401Z,97.8
2017-08-19T03:45:56.574Z,97.99
2017-08-19T03:46:22.710Z,97.33
2017-08-19T03:46:48.873Z,97.04
2017-08-19T03:47:15.012Z,97.33
2017-08-19T03:47:41.204Z,96.94
2017-08-19T03:48:07.437Z,97.23
2017-08-19T03:48:33.626Z,97.33
2017-08-19T03:48:59.817Z,97.04
2017-08-19T03:49:25.938Z,97.13
2017-08-19T03:49:52.125Z,97.13
2017-08-19T03:50:18.315Z,97.13
2017-08-19T03:50:44.506Z,97.13
2017-08-19T03:51:10.714Z,97.52
2017-08-19T03:51:36.863Z,97.33
2017-08-19T03:52:03.048Z,97.23
2017-08-19T03:52:29.208Z,97.04
2017-08-19T03:52:55.385Z,97.04
2017-08-19T03:53:21.572Z,97.23
2017-08-19T03:53:47.733Z,97.04
2017-08-19T03:54:13.900Z,97.52
2017-08-19T03:54:40.118Z,97.52
2017-08-19T03:55:06.355Z,97.33
2017-08-19T03:55:32.488Z,96.99
2017-08-19T03:55:58.679Z,97.28
2017-08-19T03:56:24.858Z,97.28
2017-08-19T03:56:51.081Z,97.56
2017-08-19T03:57:17.235Z,97.85
2017-08-19T03:57:43.382Z,97.66
2017-08-19T03:58:09.504Z,97.42
2017-08-19T03:58:35.678Z,97.08
2017-08-19T03:59:01.845Z,97.04
2017-08-19T03:59:28.031Z,97.04
2017-08-19T03:59:54.181Z,96.89
2017-08-19T04:00:20.289Z,96.89
2017-08-19T04:00:46.445Z,96.89
2017-08-19T04:01:12.624Z,98.04
2017-08-19T04:01:38.762Z,97.75
2017-08-19T04:02:04.935Z,97.75
2017-08-19T04:02:31.152Z,98.09
2017-08-19T04:02:57.256Z,97.47
2017-08-19T04:03:23.435Z,97.04
2017-08-19T04:03:49.559Z,96.84
2017-08-19T04:04:15.730Z,96.75
2017-08-19T04:04:41.847Z,96.8
2017-08-19T04:05:08.062Z,97.08
2017-08-19T04:05:34.240Z,96.61
2017-08-19T04:06:00.408Z,97.13
2017-08-19T04:06:26.630Z,97.18
2017-08-19T04:06:52.779Z,97.23
2017-08-19T04:07:18.914Z,97.18
2017-08-19T04:07:45.068Z,96.99
2017-08-19T04:08:11.267Z,97.37
2017-08-19T04:08:37.419Z,96.89
2017-08-19T04:09:03.556Z,97.08
2017-08-19T04:09:29.692Z,96.99
2017-08-19T04:09:55.817Z,97.47
2017-08-19T04:10:22.023Z,96.32
2017-08-19T04:10:48.212Z,97.08
2017-08-19T04:11:14.369Z,97.28
2017-08-19T04:11:40.577Z,96.99
2017-08-19T04:12:06.799Z,97.04
2017-08-19T04:12:32.980Z,97.04
2017-08-19T04:12:59.106Z,97.13
2017-08-19T04:13:25.276Z,97.13
2017-08-19T04:13:51.420Z,97.04
2017-08-19T04:14:17.584Z,96.94
2017-08-19T04:14:43.799Z,97.08
2017-08-19T04:15:10.011Z,97.08
2017-08-19T04:15:36.177Z,96.7
2017-08-19T04:16:02.300Z,96.8
2017-08-19T04:16:28.521Z,96.99
2017-08-19T04:16:54.689Z,97.04
2017-08-19T04:17:20.864Z,97.13
2017-08-19T04:17:47.024Z,97.28
2017-08-19T04:18:13.189Z,97.13
2017-08-19T04:18:39.364Z,97.13
2017-08-19T04:19:05.566Z,96.94
2017-08-19T04:19:31.729Z,96.75
2017-08-19T04:19:57.874Z,96.56
2017-08-19T04:20:24.069Z,96.56
2017-08-19T04:20:50.183Z,96.42
2017-08-19T04:21:16.367Z,96.99
2017-08-19T04:21:42.475Z,97.33
2017-08-19T04:22:08.678Z,96.84
2017-08-19T04:22:34.832Z,96.32
2017-08-19T04:23:00.968Z,96.61
2017-08-19T04:23:27.166Z,97.08
2017-08-19T04:23:53.326Z,97.28
2017-08-19T04:24:19.536Z,96.89
2017-08-19T04:24:45.749Z,96.89
2017-08-19T04:25:11.890Z,96.8
2017-08-19T04:25:38.062Z,97.08
2017-08-19T04:26:04.184Z,97.08
2017-08-19T04:26:30.332Z,97.13
2017-08-19T04:26:56.499Z,96.75
2017-08-19T04:27:22.695Z,96.61
2017-08-19T04:27:48.871Z,96.94
2017-08-19T04:28:15.066Z,96.47
2017-08-19T04:28:41.284Z,96.75
2017-08-19T04:29:07.498Z,96.84
2017-08-19T04:29:33.666Z,96.42
2017-08-19T04:29:59.836Z,96.8
2017-08-19T04:30:26.031Z,96.84
2017-08-19T04:30:52.155Z,96.32
2017-08-19T04:31:18.330Z,96.51
2017-08-19T04:31:44.493Z,96.61
2017-08-19T04:32:10.673Z,96.89
2017-08-19T04:32:36.852Z,96.7
2017-08-19T04:33:03.018Z,96.32
2017-08-19T04:33:29.196Z,97.08
2017-08-19T04:33:55.384Z,97.08
2017-08-19T04:34:21.569Z,96.8
2017-08-19T04:34:47.747Z,96.99
2017-08-19T04:35:13.875Z,96.99
2017-08-19T04:35:40.040Z,96.99
2017-08-19T04:36:06.254Z,96.89
2017-08-19T04:36:32.392Z,97.08
2017-08-19T04:36:58.577Z,96.8
2017-08-19T04:37:24.794Z,96.8
2017-08-19T04:37:50.958Z,96.8
2017-08-19T04:38:17.135Z,96.7
2017-08-19T04:38:43.325Z,97.47
2017-08-19T04:39:09.539Z,97.28
2017-08-19T04:39:35.682Z,97.08
2017-08-19T04:40:01.895Z,96.89
2017-08-19T04:40:28.124Z,97.47
2017-08-19T04:40:54.315Z,96.99
2017-08-19T04:41:20.499Z,97.37
2017-08-19T04:41:46.732Z,97.47
2017-08-19T04:42:12.882Z,96.99
2017-08-19T04:42:39.053Z,96.99
2017-08-19T04:43:05.201Z,97.37
2017-08-19T04:43:31.354Z,97.18
2017-08-19T04:43:57.489Z,96.99
2017-08-19T04:44:23.658Z,97.08
2017-08-19T04:44:49.783Z,97.08
2017-08-19T04:45:15.990Z,96.99
2017-08-19T04:45:42.234Z,97.08
2017-08-19T04:46:08.402Z,97.47
2017-08-19T04:46:34.552Z,97.18
2017-08-19T04:47:00.715Z,97.08
2017-08-19T04:47:26.870Z,97.28
2017-08-19T04:47:53.061Z,96.8
2017-08-19T04:48:19.226Z,96.89
2017-08-19T04:48:45.372Z,96.7
2017-08-19T04:49:11.495Z,96.7
2017-08-19T04:49:37.692Z,97.18
2017-08-19T04:50:03.890Z,96.7
2017-08-19T04:50:30.080Z,97.08
2017-08-19T04:50:56.245Z,96.8
2017-08-19T04:51:22.442Z,96.51
2017-08-19T04:51:48.603Z,96.75
2017-08-19T04:52:14.784Z,96.56
2017-08-19T04:52:40.930Z,96.75
2017-08-19T04:53:07.100Z,96.56
2017-08-19T04:53:33.270Z,96.56
2017-08-19T04:53:59.460Z,96.75
2017-08-19T04:54:25.601Z,96.56
2017-08-19T04:54:51.767Z,96.27
2017-08-19T04:55:17.921Z,96.08
2017-08-19T04:55:44.093Z,96.84
2017-08-19T04:56:10.227Z,96.66
2017-08-19T04:56:36.412Z,96.56
2017-08-19T04:57:02.621Z,96.56
2017-08-19T04:57:28.783Z,96.47
2017-08-19T04:57:54.963Z,96.75
2017-08-19T04:58:21.133Z,96.66
2017-08-19T04:58:47.321Z,96.94
2017-08-19T04:59:13.463Z,96.37
2017-08-19T04:59:39.600Z,96.56
2017-08-19T05:00:05.825Z,96.75
2017-08-19T05:00:31.935Z,96.27
2017-08-19T05:00:58.100Z,96.75
2017-08-19T05:01:24.314Z,96.27
2017-08-19T05:01:50.532Z,96.27
2017-08-19T05:02:16.728Z,96.27
2017-08-19T05:02:42.928Z,96.18
2017-08-19T05:03:09.176Z,96.18
2017-08-19T05:03:35.404Z,96.27
2017-08-19T05:04:01.558Z,96.56
2017-08-19T05:04:27.724Z,96.47
2017-08-19T05:04:53.872Z,96.18
2017-08-19T05:05:20.057Z,96.37
2017-08-19T05:05:46.248Z,96.27
2017-08-19T05:06:12.457Z,96.47
2017-08-19T05:06:38.672Z,96.27
2017-08-19T05:07:04.782Z,96.37
2017-08-19T05:07:30.918Z,96.08
2017-08-19T05:07:57.041Z,96.08
2017-08-19T05:08:23.271Z,96.08
2017-08-19T05:08:49.381Z,95.79
2017-08-19T05:09:15.502Z,95.89
2017-08-19T05:09:41.673Z,96.37
2017-08-19T05:10:07.858Z,96.18
2017-08-19T05:10:33.995Z,96.37
2017-08-19T05:11:00.134Z,95.89
2017-08-19T05:11:26.320Z,96.27
2017-08-19T05:11:52.483Z,95.98
2017-08-19T05:12:18.629Z,95.7
2017-08-19T05:12:44.815Z,95.7
2017-08-19T05:13:10.991Z,95.51
2017-08-19T05:13:37.129Z,95.79
2017-08-19T05:14:03.311Z,95.41
2017-08-19T05:14:29.466Z,95.51
2017-08-19T05:14:55.642Z,95.79
2017-08-19T05:15:21.814Z,95.41
2017-08-19T05:15:48.004Z,95.98
2017-08-19T05:16:14.254Z,95.7
2017-08-19T05:16:40.402Z,95.79
2017-08-19T05:17:06.563Z,95.61
2017-08-19T05:17:32.749Z,95.79
2017-08-19T05:17:58.898Z,95.41
2017-08-19T05:18:25.060Z,95.51
2017-08-19T05:18:51.268Z,95.41
2017-08-19T05:19:17.429Z,95.7
2017-08-19T05:19:43.560Z,95.41
2017-08-19T05:20:09.680Z,95.7
2017-08-19T05:20:35.847Z,95.32
2017-08-19T05:21:02.000Z,95.61
2017-08-19T05:21:28.205Z,95.51
2017-08-19T05:21:54.344Z,95.7
2017-08-19T05:22:20.549Z,95.41
2017-08-19T05:22:46.711Z,95.41
2017-08-19T05:23:12.870Z,95.61
2017-08-19T05:23:39.015Z,95.41
2017-08-19T05:24:05.208Z,95.51
2017-08-19T05:24:31.350Z,95.51
2017-08-19T05:24:57.522Z,95.61
2017-08-19T05:25:23.719Z,95.79
2017-08-19T05:25:49.894Z,95.61
2017-08-19T05:26:16.076Z,95.32
2017-08-19T05:26:42.241Z,95.7
2017-08-19T05:27:08.471Z,95.41
2017-08-19T05:27:34.661Z,95.41
2017-08-19T05:28:00.765Z,95.12
2017-08-19T05:28:26.912Z,95.22
2017-08-19T05:28:53.035Z,95.12
2017-08-19T05:29:19.214Z,95.12
2017-08-19T05:29:45.346Z,95.12
2017-08-19T05:30:11.598Z,95.32
2017-08-19T05:30:37.776Z,95.61
2017-08-19T05:31:03.914Z,95.51
2017-08-19T05:31:30.040Z,95.03
2017-08-19T05:31:56.219Z,95.51
2017-08-19T05:32:22.407Z,95.12
2017-08-19T05:32:48.531Z,95.32
2017-08-19T05:33:14.776Z,95.12
2017-08-19T05:33:40.920Z,95.41
2017-08-19T05:34:07.096Z,95.61
2017-08-19T05:34:33.285Z,95.51
2017-08-19T05:34:59.433Z,95.61
2017-08-19T05:35:25.684Z,95.41
2017-08-19T05:35:51.842Z,95.12
2017-08-19T05:36:17.985Z,95.22
2017-08-19T05:36:44.115Z,95.03
2017-08-19T05:37:10.267Z,95.03
2017-08-19T05:37:36.385Z,95.41
2017-08-19T05:38:02.605Z,94.84
2017-08-19T05:38:28.832Z,94.55